Time;durP1;ratioP1;P1;durP2;ratioP2;P2;SDS_P1;SDS_P2;PMS_P1;PMS_P2;Temp;Humidity;BMP_temperature;BMP_pressure;BME280_temperature;BME280_humidity;BME280_pressure;Samples;Min_cycle;Max_cycle;Signal;HPM_P1;HPM_P2
2023/07/11 00:02:15;;;;;;;0.80;0.60;;;23.70;99.90;;;;;;5121689;27;45539;-66
2023/07/11 00:04:42;;;;;;;0.77;0.63;;;23.70;99.90;;;;;;5122841;27;45255;-66
2023/07/11 00:07:09;;;;;;;1.02;0.80;;;23.70;99.90;;;;;;5123165;27;46997;-66
2023/07/11 00:09:36;;;;;;;0.80;0.70;;;23.70;99.90;;;;;;5122598;27;45397;-66
2023/07/11 00:12:03;;;;;;;1.08;0.70;;;23.80;99.90;;;;;;5123839;27;45467;-66
2023/07/11 00:14:30;;;;;;;1.02;0.70;;;23.70;99.90;;;;;;5123383;27;45279;-66
2023/07/11 00:16:58;;;;;;;2.05;0.65;;;23.70;99.90;;;;;;5123921;27;46594;-66
2023/07/11 00:19:25;;;;;;;2.30;0.80;;;23.70;99.90;;;;;;5126466;27;45396;-66
2023/07/11 00:21:51;;;;;;;0.90;0.70;;;23.70;99.90;;;;;;5123886;27;45534;-66
2023/07/11 00:24:18;;;;;;;2.38;1.00;;;23.70;99.90;;;;;;5124081;27;45340;-66
2023/07/11 00:26:45;;;;;;;2.22;1.15;;;23.70;99.90;;;;;;5123646;27;47533;-66
2023/07/11 00:29:16;;;;;;;1.48;0.60;;;23.70;99.90;;;;;;5121798;27;45401;-66
2023/07/11 00:31:43;;;;;;;1.05;0.70;;;23.70;99.90;;;;;;5122900;27;45585;-65
2023/07/11 00:34:11;;;;;;;0.82;0.65;;;23.70;99.90;;;;;;5123609;27;45189;-66
2023/07/11 00:36:38;;;;;;;0.82;0.80;;;23.70;99.90;;;;;;5122708;27;45453;-66
2023/07/11 00:39:06;;;;;;;1.33;0.80;;;23.70;99.90;;;;;;5121848;27;45434;-66
2023/07/11 00:41:33;;;;;;;0.68;0.63;;;23.70;99.90;;;;;;5122416;27;45382;-66
2023/07/11 00:43:59;;;;;;;1.50;0.70;;;23.70;99.90;;;;;;5114460;27;45551;-66
2023/07/11 00:46:26;;;;;;;0.70;0.70;;;23.70;99.90;;;;;;5123142;27;45350;-66
2023/07/11 00:48:55;;;;;;;0.77;0.77;;;23.70;99.90;;;;;;5122758;27;45260;-66
2023/07/11 00:51:29;;;;;;;0.95;0.70;;;23.70;99.90;;;;;;5122653;27;45403;-66
2023/07/11 00:53:56;;;;;;;1.05;0.60;;;23.70;99.90;;;;;;5122049;27;45355;-67
2023/07/11 00:56:27;;;;;;;1.20;0.88;;;23.70;99.90;;;;;;5117390;27;46262;-65
2023/07/11 00:58:55;;;;;;;0.70;0.65;;;23.80;99.90;;;;;;5120791;27;45716;-65
2023/07/11 01:01:23;;;;;;;1.25;0.70;;;23.80;99.90;;;;;;5121190;27;45506;-65
2023/07/11 01:03:52;;;;;;;0.60;0.60;;;23.70;99.90;;;;;;5122561;27;45267;-67
2023/07/11 01:06:21;;;;;;;0.95;0.70;;;23.70;99.90;;;;;;5122631;27;45575;-66
2023/07/11 01:08:51;;;;;;;1.15;0.70;;;23.70;99.80;;;;;;5123507;27;45493;-66
2023/07/11 01:11:22;;;;;;;1.40;0.75;;;23.70;99.90;;;;;;5120058;27;45517;-66
2023/07/11 01:13:49;;;;;;;1.17;0.80;;;23.70;99.90;;;;;;5121716;27;45289;-66
2023/07/11 01:16:16;;;;;;;0.57;0.57;;;23.70;99.90;;;;;;5120419;27;45421;-66
2023/07/11 01:18:43;;;;;;;1.60;0.88;;;23.70;99.90;;;;;;5123052;27;45414;-65
2023/07/11 01:21:16;;;;;;;1.42;0.75;;;23.70;99.90;;;;;;5122699;27;45346;-66
2023/07/11 01:23:44;;;;;;;0.77;0.70;;;23.70;99.90;;;;;;5122210;27;45448;-66
2023/07/11 01:26:11;;;;;;;1.70;1.10;;;23.70;99.90;;;;;;5121487;27;46286;-66
2023/07/11 01:28:39;;;;;;;0.88;0.77;;;23.70;99.70;;;;;;5121330;27;45680;-65
2023/07/11 01:31:06;;;;;;;1.67;0.80;;;23.70;99.40;;;;;;5121388;27;45409;-65
2023/07/11 01:33:33;;;;;;;1.13;0.73;;;23.60;99.30;;;;;;5123047;27;45339;-67
2023/07/11 01:36:00;;;;;;;0.75;0.70;;;23.60;99.20;;;;;;5122319;27;47032;-66
2023/07/11 01:38:28;;;;;;;1.52;1.00;;;23.60;99.20;;;;;;5123205;27;45583;-66
2023/07/11 01:40:55;;;;;;;1.00;0.80;;;23.60;99.20;;;;;;5121738;27;45501;-66
2023/07/11 01:43:22;;;;;;;1.50;1.00;;;23.60;99.40;;;;;;5121931;27;45189;-65
2023/07/11 01:45:48;;;;;;;1.40;0.90;;;23.60;99.90;;;;;;5117360;27;47388;-66
2023/07/11 01:48:15;;;;;;;1.83;0.93;;;23.60;99.90;;;;;;5114453;27;45577;-66
2023/07/11 01:50:42;;;;;;;2.58;1.10;;;23.60;99.90;;;;;;5121030;27;45426;-67
2023/07/11 01:53:09;;;;;;;2.88;0.80;;;23.60;99.90;;;;;;5122552;27;45342;-66
2023/07/11 01:55:37;;;;;;;1.95;0.80;;;23.60;99.90;;;;;;5124502;27;47194;-68
2023/07/11 01:58:04;;;;;;;1.30;1.05;;;23.60;99.90;;;;;;5127871;27;45225;-66
2023/07/11 02:00:31;;;;;;;1.90;0.90;;;23.60;99.90;;;;;;5123991;27;45367;-65
2023/07/11 02:02:58;;;;;;;0.70;0.70;;;23.60;99.90;;;;;;5131610;27;45805;-66
2023/07/11 02:05:24;;;;;;;1.10;0.80;;;23.60;99.90;;;;;;5126087;27;45461;-66
2023/07/11 02:07:51;;;;;;;1.02;0.93;;;23.60;99.90;;;;;;5125435;27;45729;-66
2023/07/11 02:10:18;;;;;;;2.00;0.80;;;23.60;99.90;;;;;;5125552;27;45377;-66
2023/07/11 02:12:46;;;;;;;1.33;1.00;;;23.60;99.90;;;;;;5126206;27;45654;-66
2023/07/11 02:15:13;;;;;;;1.15;0.98;;;23.60;99.90;;;;;;5126017;27;46477;-66
2023/07/11 02:17:40;;;;;;;2.63;1.08;;;23.60;99.90;;;;;;5128735;27;45460;-66
2023/07/11 02:20:09;;;;;;;1.83;0.90;;;23.60;99.90;;;;;;5125345;27;45598;-65
2023/07/11 02:22:36;;;;;;;1.35;1.08;;;23.60;99.90;;;;;;5125876;27;45322;-66
2023/07/11 02:25:03;;;;;;;2.17;0.90;;;23.60;99.90;;;;;;5117684;27;45468;-66
2023/07/11 02:27:29;;;;;;;1.83;0.80;;;23.60;99.90;;;;;;5126078;27;45237;-66
2023/07/11 02:29:58;;;;;;;1.10;0.90;;;23.60;99.90;;;;;;5125482;27;45220;-66
2023/07/11 02:32:25;;;;;;;1.77;0.90;;;23.60;99.90;;;;;;5125323;27;45427;-66
2023/07/11 02:34:52;;;;;;;2.40;1.10;;;23.60;99.90;;;;;;5125969;27;46034;-66
2023/07/11 02:37:19;;;;;;;1.95;0.90;;;23.60;99.90;;;;;;5115394;27;45759;-66
2023/07/11 02:39:46;;;;;;;1.83;0.90;;;23.60;99.90;;;;;;5123733;27;45362;-66
2023/07/11 02:42:13;;;;;;;2.03;0.90;;;23.60;99.90;;;;;;5125237;27;45439;-67
2023/07/11 02:44:40;;;;;;;1.00;0.90;;;23.60;99.90;;;;;;5125217;27;47808;-65
2023/07/11 02:47:08;;;;;;;1.20;0.80;;;23.60;99.90;;;;;;5126161;27;45432;-67
2023/07/11 02:49:38;;;;;;;2.22;0.82;;;23.60;99.90;;;;;;5124462;27;45408;-65
2023/07/11 02:52:05;;;;;;;1.92;1.10;;;23.60;99.90;;;;;;5119798;27;45408;-66
2023/07/11 02:54:32;;;;;;;1.05;0.88;;;23.60;99.90;;;;;;5124636;27;45397;-66
2023/07/11 02:56:59;;;;;;;0.70;0.70;;;23.60;99.90;;;;;;5122600;27;45475;-67
2023/07/11 02:59:26;;;;;;;1.70;1.10;;;23.60;99.90;;;;;;5120040;27;45527;-65
2023/07/11 03:01:53;;;;;;;2.35;1.20;;;23.60;99.90;;;;;;5126589;27;45505;-66
2023/07/11 03:04:21;;;;;;;1.58;1.05;;;23.60;99.90;;;;;;5126731;27;46618;-66
2023/07/11 03:06:47;;;;;;;1.50;0.90;;;23.60;99.90;;;;;;5123433;27;45522;-66
2023/07/11 03:09:14;;;;;;;1.15;0.90;;;23.60;99.90;;;;;;5122305;27;45388;-65
2023/07/11 03:11:41;;;;;;;2.78;1.17;;;23.60;99.90;;;;;;5116020;27;45563;-65
2023/07/11 03:14:08;;;;;;;1.42;0.80;;;23.60;99.90;;;;;;5123807;27;47537;-66
2023/07/11 03:16:35;;;;;;;1.30;1.00;;;23.60;99.90;;;;;;5121948;27;45575;-66
2023/07/11 03:19:02;;;;;;;1.02;0.80;;;23.60;99.90;;;;;;5125139;27;45286;-66
2023/07/11 03:21:30;;;;;;;2.10;1.20;;;23.60;99.90;;;;;;5123628;27;45385;-66
2023/07/11 03:23:57;;;;;;;1.40;0.90;;;23.60;99.90;;;;;;5124132;27;46595;-65
2023/07/11 03:26:23;;;;;;;2.38;1.20;;;23.60;99.90;;;;;;5124718;27;45376;-65
2023/07/11 03:28:50;;;;;;;1.88;1.00;;;23.60;99.90;;;;;;5119960;27;45365;-66
2023/07/11 03:31:17;;;;;;;1.58;1.13;;;23.60;99.90;;;;;;5124722;27;45468;-66
2023/07/11 03:33:46;;;;;;;1.05;0.77;;;23.60;99.90;;;;;;5123808;27;48013;-65
2023/07/11 03:36:13;;;;;;;1.48;1.00;;;23.60;99.90;;;;;;5125773;27;45416;-66
2023/07/11 03:38:41;;;;;;;1.77;0.82;;;23.60;99.90;;;;;;5125223;27;45249;-65
2023/07/11 03:41:08;;;;;;;1.45;1.00;;;23.60;99.90;;;;;;5119712;27;45603;-67
2023/07/11 03:43:35;;;;;;;2.00;1.00;;;23.60;99.90;;;;;;5120003;27;46206;-65
2023/07/11 03:46:01;;;;;;;1.92;1.08;;;23.60;99.90;;;;;;5119638;27;46256;-65
2023/07/11 03:48:29;;;;;;;1.63;0.90;;;23.60;99.90;;;;;;5125127;27;45498;-66
2023/07/11 03:50:56;;;;;;;1.77;1.00;;;23.60;99.90;;;;;;5122903;27;45347;-66
2023/07/11 03:53:23;;;;;;;1.58;1.10;;;23.60;99.90;;;;;;5124146;27;45543;-65
2023/07/11 03:55:51;;;;;;;1.90;1.02;;;23.60;99.90;;;;;;5122023;27;45381;-66
2023/07/11 03:58:18;;;;;;;1.52;0.90;;;23.60;99.90;;;;;;5120288;27;45334;-66
2023/07/11 04:00:46;;;;;;;2.28;1.25;;;23.60;99.90;;;;;;5121048;27;45410;-65
2023/07/11 04:03:13;;;;;;;2.28;1.20;;;23.60;99.90;;;;;;5121177;27;45370;-65
2023/07/11 04:05:42;;;;;;;2.38;1.23;;;23.60;99.90;;;;;;5136095;27;45311;-65
2023/07/11 04:08:09;;;;;;;2.00;1.15;;;23.60;99.90;;;;;;5123747;27;45277;-66
2023/07/11 04:10:36;;;;;;;1.45;0.90;;;23.60;99.90;;;;;;5123725;27;45591;-66
2023/07/11 04:13:04;;;;;;;1.25;0.98;;;23.60;99.90;;;;;;5123872;27;46309;-65
2023/07/11 04:15:31;;;;;;;1.23;1.00;;;23.60;99.90;;;;;;5124015;27;45432;-65
2023/07/11 04:17:58;;;;;;;2.00;1.10;;;23.60;99.90;;;;;;5124117;27;45528;-65
2023/07/11 04:20:25;;;;;;;2.10;1.02;;;23.60;99.90;;;;;;5118975;27;45532;-65
2023/07/11 04:22:51;;;;;;;1.52;0.95;;;23.60;99.90;;;;;;5123689;27;46430;-65
2023/07/11 04:25:18;;;;;;;1.98;1.30;;;23.60;99.90;;;;;;5126339;27;45365;-68
2023/07/11 04:27:45;;;;;;;2.05;1.27;;;23.60;99.90;;;;;;5124276;27;45522;-67
2023/07/11 04:30:14;;;;;;;1.65;1.05;;;23.60;99.90;;;;;;5123434;27;45599;-66
2023/07/11 04:32:41;;;;;;;2.80;1.20;;;23.60;99.90;;;;;;5121549;27;47445;-66
2023/07/11 04:35:13;;;;;;;1.55;1.10;;;23.60;99.90;;;;;;5126310;27;45401;-67
2023/07/11 04:37:40;;;;;;;2.38;0.90;;;23.60;99.90;;;;;;5126218;27;45428;-66
2023/07/11 04:40:08;;;;;;;1.20;0.90;;;23.60;99.90;;;;;;5123622;27;45571;-66
2023/07/11 04:42:34;;;;;;;1.75;0.95;;;23.60;99.90;;;;;;5127606;27;48169;-66
2023/07/11 04:45:01;;;;;;;1.17;1.00;;;23.60;99.90;;;;;;5122552;27;45408;-66
2023/07/11 04:47:30;;;;;;;1.70;1.10;;;23.60;99.90;;;;;;5126471;27;45461;-66
2023/07/11 04:49:56;;;;;;;1.10;1.00;;;23.60;99.90;;;;;;5122982;27;45288;-66
2023/07/11 04:52:25;;;;;;;1.95;1.17;;;23.60;99.90;;;;;;5122455;27;46264;-66
2023/07/11 04:54:52;;;;;;;1.63;1.10;;;23.60;99.90;;;;;;5127540;27;45410;-66
2023/07/11 04:57:19;;;;;;;1.40;1.08;;;23.60;99.90;;;;;;5124748;27;45363;-66
2023/07/11 04:59:45;;;;;;;2.25;1.10;;;23.60;99.90;;;;;;5122706;27;45307;-65
2023/07/11 05:02:12;;;;;;;2.15;1.08;;;23.60;99.90;;;;;;5121611;27;45336;-66
2023/07/11 05:04:41;;;;;;;2.05;1.10;;;23.60;99.90;;;;;;5123750;27;45556;-66
2023/07/11 05:07:08;;;;;;;1.65;1.02;;;23.60;99.90;;;;;;5115191;27;45355;-65
2023/07/11 05:09:37;;;;;;;1.83;1.23;;;23.60;99.90;;;;;;5122402;27;45449;-66
2023/07/11 05:12:05;;;;;;;1.75;1.13;;;23.60;99.90;;;;;;5123053;27;47288;-65
2023/07/11 05:14:32;;;;;;;1.40;1.15;;;23.60;99.90;;;;;;5125705;27;45411;-65
2023/07/11 05:16:59;;;;;;;2.40;1.27;;;23.60;99.90;;;;;;5123480;27;45293;-66
2023/07/11 05:19:26;;;;;;;1.75;1.00;;;23.60;99.90;;;;;;5128410;27;45297;-66
2023/07/11 05:21:54;;;;;;;0.93;0.73;;;23.60;99.90;;;;;;5123163;27;47468;-65
2023/07/11 05:24:21;;;;;;;2.15;1.10;;;23.60;99.90;;;;;;5123027;27;45330;-66
2023/07/11 05:26:47;;;;;;;1.05;0.90;;;23.60;99.90;;;;;;5117938;27;45316;-66
2023/07/11 05:29:14;;;;;;;3.20;1.42;;;23.60;99.90;;;;;;5123982;27;45463;-66
2023/07/11 05:31:41;;;;;;;1.20;0.95;;;23.60;99.90;;;;;;5126679;27;45498;-65
2023/07/11 05:34:08;;;;;;;1.30;1.10;;;23.60;99.90;;;;;;5126947;27;45360;-65
2023/07/11 05:36:35;;;;;;;1.98;1.02;;;23.60;99.90;;;;;;5133851;27;45273;-65
2023/07/11 05:39:06;;;;;;;1.45;1.20;;;23.60;99.90;;;;;;5127164;27;45328;-65
2023/07/11 05:41:34;;;;;;;2.08;1.23;;;23.60;99.90;;;;;;5126692;27;45272;-65
2023/07/11 05:44:01;;;;;;;1.88;1.20;;;23.60;99.80;;;;;;5120505;27;45425;-65
2023/07/11 05:46:28;;;;;;;2.08;1.20;;;23.60;99.80;;;;;;5128325;27;45418;-66
2023/07/11 05:48:57;;;;;;;1.92;1.05;;;23.60;99.80;;;;;;5128381;27;45348;-65
2023/07/11 05:51:25;;;;;;;1.65;1.02;;;23.60;99.80;;;;;;5125753;27;46256;-65
2023/07/11 05:53:52;;;;;;;1.30;0.95;;;23.60;99.80;;;;;;5126248;27;45296;-65
2023/07/11 05:56:21;;;;;;;1.35;0.88;;;23.60;99.70;;;;;;5127405;27;45701;-65
2023/07/11 05:58:49;;;;;;;1.20;1.00;;;23.60;99.70;;;;;;5128921;27;45765;-65
2023/07/11 06:01:18;;;;;;;1.58;1.10;;;23.60;99.70;;;;;;5124918;27;46535;-65
2023/07/11 06:03:46;;;;;;;1.48;1.10;;;23.60;99.70;;;;;;5128363;27;45411;-66
2023/07/11 06:06:15;;;;;;;2.08;1.15;;;23.60;99.70;;;;;;5126672;27;45333;-66
2023/07/11 06:08:42;;;;;;;1.40;1.00;;;23.60;99.70;;;;;;5126312;27;45565;-66
2023/07/11 06:11:09;;;;;;;1.42;0.80;;;23.60;99.80;;;;;;5125830;27;46376;-66
2023/07/11 06:13:40;;;;;;;1.77;1.10;;;23.60;99.80;;;;;;5126453;27;45300;-66
2023/07/11 06:16:11;;;;;;;1.30;1.10;;;23.60;99.80;;;;;;5120816;27;45355;-65
2023/07/11 06:18:39;;;;;;;2.65;1.40;;;23.60;99.80;;;;;;5120736;27;45337;-66
2023/07/11 06:21:08;;;;;;;2.28;1.50;;;23.60;99.80;;;;;;5125424;27;45316;-66
2023/07/11 06:23:35;;;;;;;1.30;1.08;;;23.60;99.80;;;;;;5126278;27;45412;-65
2023/07/11 06:26:02;;;;;;;1.73;1.20;;;23.60;99.80;;;;;;5126178;27;45245;-66
2023/07/11 06:28:29;;;;;;;1.63;1.10;;;23.60;99.80;;;;;;5126629;27;45216;-65
2023/07/11 06:30:59;;;;;;;1.55;1.15;;;23.60;99.80;;;;;;5124130;27;45313;-65
2023/07/11 06:33:26;;;;;;;1.52;1.05;;;23.60;99.90;;;;;;5125833;27;45362;-66
2023/07/11 06:35:53;;;;;;;1.13;0.98;;;23.60;99.80;;;;;;5120788;27;45283;-65
2023/07/11 06:38:21;;;;;;;1.88;1.00;;;23.60;99.80;;;;;;5125760;27;45385;-67
2023/07/11 06:40:49;;;;;;;1.73;1.20;;;23.60;99.80;;;;;;5123568;27;47547;-66
2023/07/11 06:43:16;;;;;;;1.70;1.00;;;23.60;99.70;;;;;;5124889;27;45541;-66
2023/07/11 06:45:45;;;;;;;2.38;1.42;;;23.60;99.70;;;;;;5125928;27;45274;-66
2023/07/11 06:48:14;;;;;;;2.10;1.00;;;23.70;99.70;;;;;;5126504;27;45269;-66
2023/07/11 06:50:41;;;;;;;1.13;0.95;;;23.60;99.70;;;;;;5115872;27;45223;-66
2023/07/11 06:53:08;;;;;;;2.40;1.20;;;23.70;99.60;;;;;;5125506;27;45261;-65
2023/07/11 06:55:35;;;;;;;1.85;1.30;;;23.70;99.60;;;;;;5126149;27;45352;-66
2023/07/11 06:58:01;;;;;;;1.15;0.90;;;23.60;99.50;;;;;;5125289;27;45750;-66
2023/07/11 07:00:28;;;;;;;2.22;0.90;;;23.70;99.60;;;;;;5124248;27;46314;-65
2023/07/11 07:02:55;;;;;;;1.48;1.00;;;23.70;99.50;;;;;;5125536;27;45305;-66
2023/07/11 07:05:23;;;;;;;1.23;0.95;;;23.70;99.50;;;;;;5129169;27;45314;-66
2023/07/11 07:07:50;;;;;;;3.08;1.20;;;23.70;99.40;;;;;;5124049;27;45311;-66
2023/07/11 07:10:17;;;;;;;1.67;1.10;;;23.70;99.40;;;;;;5123779;27;46432;-67
2023/07/11 07:12:43;;;;;;;1.42;1.10;;;23.70;99.40;;;;;;5134140;27;45303;-65
2023/07/11 07:15:11;;;;;;;1.75;0.98;;;23.70;99.40;;;;;;5125269;27;45361;-66
2023/07/11 07:17:37;;;;;;;2.08;1.02;;;23.70;99.50;;;;;;5129091;27;45403;-66
2023/07/11 07:20:05;;;;;;;1.55;0.90;;;23.70;99.50;;;;;;5124008;27;46398;-67
2023/07/11 07:22:33;;;;;;;1.83;1.10;;;23.70;99.40;;;;;;5127339;27;45279;-65
2023/07/11 07:25:00;;;;;;;1.30;1.10;;;23.70;99.50;;;;;;5126438;27;45567;-65
2023/07/11 07:27:27;;;;;;;1.20;1.00;;;23.70;99.40;;;;;;5118421;27;45613;-66
2023/07/11 07:29:53;;;;;;;1.48;1.20;;;23.70;99.40;;;;;;5122399;27;46308;-65
2023/07/11 07:32:20;;;;;;;1.15;0.98;;;23.70;99.40;;;;;;5123063;27;45336;-65
2023/07/11 07:34:47;;;;;;;1.30;0.90;;;23.70;99.40;;;;;;5124901;27;45459;-66
2023/07/11 07:37:14;;;;;;;1.83;1.05;;;23.70;99.30;;;;;;5124916;27;45463;-66
2023/07/11 07:39:42;;;;;;;1.33;0.88;;;23.70;99.30;;;;;;5123912;27;45231;-67
2023/07/11 07:42:09;;;;;;;2.05;1.05;;;23.70;99.30;;;;;;5116701;27;45729;-67
2023/07/11 07:44:36;;;;;;;1.83;1.20;;;23.70;99.30;;;;;;5123275;27;45393;-67
2023/07/11 07:47:03;;;;;;;1.30;1.00;;;23.70;99.20;;;;;;5122545;27;45671;-66
2023/07/11 07:49:30;;;;;;;1.65;0.90;;;23.70;99.20;;;;;;5123225;27;48613;-66
2023/07/11 07:51:56;;;;;;;2.08;1.13;;;23.70;99.20;;;;;;5122658;27;45351;-66
2023/07/11 07:54:26;;;;;;;1.55;1.08;;;23.70;99.20;;;;;;5123989;27;45332;-66
2023/07/11 07:56:54;;;;;;;1.55;1.10;;;23.70;99.10;;;;;;5124686;27;45425;-66
2023/07/11 07:59:21;;;;;;;1.50;0.90;;;23.70;99.10;;;;;;5123345;27;47762;-66
2023/07/11 08:01:47;;;;;;;1.63;0.98;;;23.70;99.10;;;;;;5120993;27;45350;-66
2023/07/11 08:04:14;;;;;;;1.40;1.00;;;23.70;99.00;;;;;;5120747;27;45292;-67
2023/07/11 08:06:41;;;;;;;1.38;1.08;;;23.70;98.90;;;;;;5118508;27;45766;-66
2023/07/11 08:09:08;;;;;;;2.00;1.20;;;23.70;98.90;;;;;;5122126;27;46321;-66
2023/07/11 08:11:34;;;;;;;1.63;1.10;;;23.70;98.90;;;;;;5119528;27;45612;-66
2023/07/11 08:14:03;;;;;;;1.50;0.90;;;23.70;98.90;;;;;;5118200;27;45523;-66
2023/07/11 08:16:30;;;;;;;3.35;1.10;;;23.80;98.90;;;;;;5123632;27;45398;-67
2023/07/11 08:18:57;;;;;;;1.42;0.98;;;23.80;99.00;;;;;;5123919;27;47900;-66
2023/07/11 08:21:24;;;;;;;1.77;0.95;;;23.70;98.90;;;;;;5122980;27;45491;-67
2023/07/11 08:23:52;;;;;;;1.65;1.08;;;23.70;98.90;;;;;;5123699;27;45273;-66
2023/07/11 08:26:21;;;;;;;0.80;0.80;;;23.70;99.00;;;;;;5124552;27;45233;-66
2023/07/11 08:28:47;;;;;;;1.20;1.00;;;23.70;98.90;;;;;;5123721;27;45499;-66
2023/07/11 08:31:17;;;;;;;1.92;1.05;;;23.70;98.90;;;;;;5122760;27;45411;-67
2023/07/11 08:33:44;;;;;;;1.38;0.95;;;23.70;98.90;;;;;;5117886;27;45415;-66
2023/07/11 08:36:11;;;;;;;1.00;0.90;;;23.70;99.00;;;;;;5116346;27;45312;-66
2023/07/11 08:38:38;;;;;;;0.93;0.80;;;23.70;99.00;;;;;;5124081;27;46473;-66
2023/07/11 08:41:16;;;;;;;1.25;0.90;;;23.70;99.00;;;;;;5122829;27;45869;-66
2023/07/11 08:43:44;;;;;;;21.95;2.58;;;23.70;99.00;;;;;;5117375;27;45396;-67
2023/07/11 08:46:14;;;;;;;6.60;1.33;;;23.80;99.40;;;;;;5121614;27;45450;-67
2023/07/11 08:48:46;;;;;;;7.45;1.98;;;23.80;99.20;;;;;;5123435;27;48441;-66
2023/07/11 08:51:23;;;;;;;7.03;1.60;;;23.80;99.10;;;;;;5117362;27;45772;-67
2023/07/11 08:53:55;;;;;;;5.03;1.50;;;23.80;99.00;;;;;;5123070;27;45478;-66
2023/07/11 08:56:30;;;;;;;6.68;1.35;;;23.80;98.90;;;;;;5124107;27;45368;-67
2023/07/11 08:59:01;;;;;;;3.70;1.30;;;23.80;98.90;;;;;;5123182;27;46567;-66
2023/07/11 09:01:38;;;;;;;3.80;2.13;;;23.80;98.80;;;;;;5121962;27;45486;-66
2023/07/11 09:04:09;;;;;;;2.28;0.88;;;23.80;98.60;;;;;;5119626;27;45622;-66
2023/07/11 09:06:44;;;;;;;2.88;1.33;;;23.80;98.50;;;;;;5120079;27;45489;-66
2023/07/11 09:09:12;;;;;;;1.60;0.90;;;23.80;98.40;;;;;;5112922;27;45249;-67
2023/07/11 09:11:45;;;;;;;6.30;1.10;;;23.80;98.40;;;;;;5117286;27;45346;-66
2023/07/11 09:14:27;;;;;;;1.45;0.88;;;23.80;98.30;;;;;;5122646;27;45514;-66
2023/07/11 09:17:00;;;;;;;2.40;1.05;;;23.80;98.30;;;;;;5120204;27;45419;-66
2023/07/11 09:19:42;;;;;;;3.58;1.17;;;23.80;98.30;;;;;;5122888;27;45301;-66
2023/07/11 09:22:19;;;;;;;3.03;0.85;;;23.80;98.20;;;;;;5123140;27;45320;-66
2023/07/11 09:24:51;;;;;;;1.33;0.90;;;23.90;98.20;;;;;;5123110;27;45327;-66
2023/07/11 09:27:23;;;;;;;1.92;0.90;;;23.80;98.20;;;;;;5123489;27;45200;-66
2023/07/11 09:29:51;;;;;;;1.10;0.93;;;23.80;98.20;;;;;;5122027;27;46243;-66
2023/07/11 09:32:19;;;;;;;1.63;1.00;;;23.80;98.30;;;;;;5121974;27;45476;-67
2023/07/11 09:34:49;;;;;;;1.02;0.90;;;23.80;98.30;;;;;;5121800;27;45612;-66
2023/07/11 09:37:29;;;;;;;1.52;0.88;;;23.90;98.30;;;;;;5123602;27;45346;-66
2023/07/11 09:40:03;;;;;;;1.63;1.00;;;23.80;98.30;;;;;;5121510;27;45538;-66
2023/07/11 09:42:41;;;;;;;1.83;0.98;;;23.90;98.20;;;;;;5117343;27;45807;-66
2023/07/11 09:45:11;;;;;;;2.40;0.90;;;23.80;98.20;;;;;;5121972;27;45421;-66
2023/07/11 09:47:40;;;;;;;2.08;0.80;;;23.90;98.20;;;;;;5123200;27;45309;-66
2023/07/11 09:50:35;;;;;;;1.75;1.00;;;23.90;98.20;;;;;;5122577;27;45470;-66
2023/07/11 09:53:03;;;;;;;1.50;0.80;;;23.90;98.20;;;;;;5123470;27;45502;-66
2023/07/11 09:55:34;;;;;;;1.50;0.90;;;23.90;98.20;;;;;;5122309;27;45581;-66
2023/07/11 09:58:01;;;;;;;1.35;0.88;;;23.90;98.20;;;;;;5121394;27;45444;-66
2023/07/11 10:00:28;;;;;;;0.88;0.70;;;23.90;98.10;;;;;;5115872;27;46604;-66
2023/07/11 10:02:58;;;;;;;1.35;0.93;;;23.90;98.00;;;;;;5120658;27;45401;-66
2023/07/11 10:05:27;;;;;;;1.92;0.95;;;23.90;98.00;;;;;;5123295;27;45377;-66
2023/07/11 10:08:01;;;;;;;1.70;1.00;;;23.90;97.90;;;;;;5121940;27;45288;-67
2023/07/11 10:10:28;;;;;;;1.70;0.80;;;23.90;97.80;;;;;;5121561;27;45401;-68
2023/07/11 10:12:55;;;;;;;1.88;0.90;;;23.90;97.80;;;;;;5122633;27;45712;-67
2023/07/11 10:15:27;;;;;;;1.48;0.85;;;23.90;97.90;;;;;;5124940;27;45354;-67
2023/07/11 10:17:56;;;;;;;2.35;0.90;;;23.90;97.70;;;;;;5124164;27;45579;-67
2023/07/11 10:20:25;;;;;;;3.08;1.10;;;23.90;97.60;;;;;;5124142;27;46228;-66
2023/07/11 10:23:01;;;;;;;1.65;1.08;;;24.00;97.70;;;;;;5126268;27;45456;-67
2023/07/11 10:25:31;;;;;;;1.25;0.90;;;23.90;97.60;;;;;;5125522;27;45332;-67
2023/07/11 10:28:01;;;;;;;3.05;0.70;;;23.90;97.60;;;;;;5126102;27;45450;-67
2023/07/11 10:30:33;;;;;;;0.93;0.70;;;24.00;97.60;;;;;;5125443;27;45316;-67
2023/07/11 10:33:04;;;;;;;1.40;0.90;;;23.90;97.60;;;;;;5119328;27;45800;-67
2023/07/11 10:35:32;;;;;;;0.63;0.60;;;23.90;97.60;;;;;;5125990;27;45239;-67
2023/07/11 10:38:03;;;;;;;3.38;1.13;;;23.90;97.50;;;;;;5126142;27;45285;-66
2023/07/11 10:40:32;;;;;;;1.38;0.80;;;23.90;97.50;;;;;;5123436;27;45461;-67
2023/07/11 10:43:05;;;;;;;1.85;1.00;;;23.90;97.50;;;;;;5125191;27;45291;-66
2023/07/11 10:45:38;;;;;;;1.88;1.10;;;24.00;97.60;;;;;;5125598;27;45248;-67
2023/07/11 10:48:18;;;;;;;2.00;0.80;;;24.00;97.50;;;;;;5125950;27;45418;-67
2023/07/11 10:50:48;;;;;;;2.30;0.90;;;24.00;97.50;;;;;;5118920;27;46585;-66
2023/07/11 10:53:23;;;;;;;1.27;0.90;;;23.90;97.40;;;;;;5125296;27;46080;-66
2023/07/11 10:55:56;;;;;;;1.88;0.90;;;24.00;97.30;;;;;;5125117;27;45571;-66
2023/07/11 10:58:24;;;;;;;1.00;0.90;;;24.00;97.20;;;;;;5125890;27;45236;-66
2023/07/11 11:01:10;;;;;;;3.70;1.15;;;24.00;97.20;;;;;;5116860;27;48706;-66
2023/07/11 11:03:39;;;;;;;2.10;1.00;;;24.00;97.10;;;;;;5127426;27;45269;-66
2023/07/11 11:06:31;;;;;;;2.03;1.13;;;24.10;97.10;;;;;;5125373;27;45240;-67
2023/07/11 11:09:10;;;;;;;1.92;1.20;;;24.10;97.10;;;;;;5121576;27;45580;-68
2023/07/11 11:11:53;;;;;;;1.70;1.05;;;24.00;97.10;;;;;;5125407;27;45330;-67
2023/07/11 11:14:26;;;;;;;2.03;1.10;;;24.10;97.10;;;;;;5116792;27;45426;-66
2023/07/11 11:17:11;;;;;;;1.73;0.90;;;24.00;97.00;;;;;;5123293;27;45246;-66
2023/07/11 11:19:53;;;;;;;1.40;0.90;;;24.00;97.00;;;;;;5121099;27;45466;-66
2023/07/11 11:22:26;;;;;;;2.20;1.00;;;24.10;96.80;;;;;;5120647;27;47556;-66
2023/07/11 11:25:00;;;;;;;2.33;0.80;;;24.10;96.70;;;;;;5119669;27;46143;-67
2023/07/11 11:27:40;;;;;;;2.00;1.00;;;24.00;96.60;;;;;;5125647;27;45318;-67
2023/07/11 11:30:20;;;;;;;0.88;0.75;;;24.00;96.10;;;;;;5116161;27;45348;-68
2023/07/11 11:33:00;;;;;;;1.48;0.85;;;24.00;95.90;;;;;;5124424;27;45390;-66
2023/07/11 11:35:36;;;;;;;1.35;1.17;;;24.00;95.80;;;;;;5114611;27;45329;-67
2023/07/11 11:38:17;;;;;;;2.40;1.20;;;24.00;95.80;;;;;;5118975;27;45287;-66
2023/07/11 11:40:49;;;;;;;2.28;1.13;;;24.00;95.80;;;;;;5115000;27;45421;-67
2023/07/11 11:43:19;;;;;;;3.88;1.10;;;24.00;95.80;;;;;;5111405;27;46657;-67
2023/07/11 11:45:47;;;;;;;1.90;1.15;;;24.00;95.70;;;;;;5117840;27;45269;-67
2023/07/11 11:48:20;;;;;;;2.53;1.10;;;24.10;96.00;;;;;;5115787;27;45359;-67
2023/07/11 11:50:48;;;;;;;2.40;1.05;;;24.00;96.10;;;;;;5114588;27;45533;-67
2023/07/11 11:53:22;;;;;;;1.80;0.90;;;24.10;96.10;;;;;;5125140;27;45365;-68
2023/07/11 11:55:56;;;;;;;2.15;0.80;;;24.10;96.10;;;;;;5123518;27;45264;-67
2023/07/11 11:58:24;;;;;;;1.88;0.85;;;24.10;96.20;;;;;;5120067;27;45366;-66
2023/07/11 12:00:54;;;;;;;2.17;1.30;;;24.10;96.20;;;;;;5128126;27;45450;-67
2023/07/11 12:03:27;;;;;;;1.40;0.98;;;24.10;96.20;;;;;;5123031;27;46290;-66
2023/07/11 12:05:55;;;;;;;1.52;1.05;;;24.10;96.10;;;;;;5123884;27;45433;-67
2023/07/11 12:08:28;;;;;;;1.58;1.00;;;24.10;96.20;;;;;;5123498;27;45435;-66
2023/07/11 12:11:20;;;;;;;2.53;1.05;;;24.10;96.20;;;;;;5124655;27;45248;-66
2023/07/11 12:14:19;;;;;;;1.52;0.90;;;24.10;96.20;;;;;;5124246;27;46973;-66
2023/07/11 12:16:49;;;;;;;2.08;0.90;;;24.10;96.20;;;;;;5124543;27;45334;-66
2023/07/11 12:19:32;;;;;;;0.88;0.70;;;24.10;96.20;;;;;;5122400;27;45771;-66
2023/07/11 12:22:04;;;;;;;2.17;0.80;;;24.10;96.20;;;;;;5124095;27;45360;-66
2023/07/11 12:24:43;;;;;;;0.90;0.75;;;24.10;96.30;;;;;;5124210;27;45503;-65
2023/07/11 12:27:48;;;;;;;1.38;1.00;;;24.10;96.30;;;;;;5122636;27;45763;-66
2023/07/11 12:30:45;;;;;;;1.45;0.90;;;24.10;96.30;;;;;;5115288;27;45277;-65
2023/07/11 12:33:46;;;;;;;1.77;1.17;;;24.10;96.40;;;;;;5120510;27;45403;-67
2023/07/11 12:36:48;;;;;;;1.45;1.10;;;24.10;96.40;;;;;;5036120;28;45365;-66
2023/07/11 12:39:23;;;;;;;1.20;0.80;;;24.10;96.40;;;;;;5116222;27;45551;-66
2023/07/11 12:41:59;;;;;;;2.45;1.15;;;24.10;96.40;;;;;;5125117;27;45657;-66
2023/07/11 12:44:35;;;;;;;1.23;0.90;;;24.10;96.40;;;;;;5114509;27;45442;-66
2023/07/11 12:47:06;;;;;;;0.95;0.88;;;24.10;96.50;;;;;;5121544;27;48323;-66
2023/07/11 12:49:34;;;;;;;1.00;0.90;;;24.10;96.50;;;;;;5121907;27;45519;-65
2023/07/11 12:52:05;;;;;;;1.17;1.00;;;24.10;96.50;;;;;;5123794;27;45492;-66
2023/07/11 12:54:32;;;;;;;1.42;0.75;;;24.10;96.50;;;;;;5124840;27;45582;-65
2023/07/11 12:56:59;;;;;;;2.90;1.17;;;24.10;96.60;;;;;;5124775;27;46607;-65
2023/07/11 13:02:01;;;;;;;3.08;1.00;;;24.10;96.60;;;;;;5125082;27;45517;-72
2023/07/11 13:04:34;;;;;;;10.45;1.90;;;24.10;97.40;;;;;;5106641;27;45630;-67